Time;durP1;ratioP1;P1;durP2;ratioP2;P2;SDS_P1;SDS_P2;PMS_P1;PMS_P2;Temp;Humidity;BMP_temperature;BMP_pressure;BME280_temperature;BME280_humidity;BME280_pressure;Samples;Min_cycle;Max_cycle;Signal;HPM_P1;HPM_P2
2023/04/01 00:01:35;;;;;;;20.30;5.03;;;16.10;82.10;;;;;;6246383;23;20050;-78
2023/04/01 00:04:01;;;;;;;24.60;5.53;;;16.00;81.90;;;;;;6246617;23;20023;-77
2023/04/01 00:06:28;;;;;;;21.33;5.03;;;16.00;81.70;;;;;;6246572;23;20284;-79
2023/04/01 00:08:53;;;;;;;22.02;5.43;;;16.00;81.80;;;;;;6246371;23;20000;-78
2023/04/01 00:11:20;;;;;;;19.67;5.15;;;16.00;81.80;;;;;;6245994;23;20034;-76
2023/04/01 00:13:47;;;;;;;23.17;5.45;;;16.00;81.80;;;;;;6246232;23;20023;-78
2023/04/01 00:16:13;;;;;;;17.60;5.28;;;15.90;81.70;;;;;;6246023;23;20442;-78
2023/04/01 00:18:40;;;;;;;20.17;5.60;;;15.90;81.80;;;;;;6245828;23;20430;-79
2023/04/01 00:21:06;;;;;;;22.55;5.88;;;15.90;82.00;;;;;;6246120;23;20308;-79
2023/04/01 00:23:32;;;;;;;23.73;5.40;;;15.80;82.10;;;;;;6219252;23;20063;-79
2023/04/01 00:26:00;;;;;;;22.20;6.20;;;15.80;82.00;;;;;;6246388;23;20374;-78
2023/04/01 00:28:27;;;;;;;22.20;5.88;;;15.80;82.10;;;;;;6246134;23;20020;-77
2023/04/01 00:30:52;;;;;;;22.25;5.50;;;15.80;82.10;;;;;;6260375;23;20023;-79
2023/04/01 00:33:18;;;;;;;24.38;5.75;;;15.80;82.40;;;;;;6268397;23;20383;-79
2023/04/01 00:35:44;;;;;;;18.80;5.57;;;15.80;82.40;;;;;;6267207;23;20026;-79
2023/04/01 00:38:11;;;;;;;25.52;5.93;;;15.70;82.50;;;;;;6246845;23;20079;-79
2023/04/01 00:40:45;;;;;;;23.02;6.50;;;15.70;82.50;;;;;;6246326;23;20019;-79
2023/04/01 00:43:20;;;;;;;22.55;5.90;;;15.70;82.60;;;;;;6219070;23;20329;-79
2023/04/01 00:45:49;;;;;;;23.10;6.10;;;15.70;82.60;;;;;;6245482;23;20008;-77
2023/04/01 00:48:21;;;;;;;20.67;5.95;;;15.70;82.70;;;;;;6246066;23;20003;-78
2023/04/01 00:51:07;;;;;;;21.67;4.65;;;15.70;82.90;;;;;;6246012;23;20020;-78
2023/04/01 00:53:36;;;;;;;23.98;6.55;;;15.80;83.20;;;;;;6245837;23;20000;-78
2023/04/01 00:56:13;;;;;;;24.63;5.63;;;15.80;83.10;;;;;;6245757;23;20015;-78
2023/04/01 00:58:43;;;;;;;21.80;5.03;;;15.80;83.30;;;;;;6245605;23;20027;-80
2023/04/01 01:01:10;;;;;;;26.27;5.90;;;15.80;82.90;;;;;;6248584;23;20379;-78
2023/04/01 01:03:36;;;;;;;25.30;6.70;;;15.80;83.10;;;;;;6245531;23;20004;-78
2023/04/01 01:06:07;;;;;;;28.45;5.30;;;15.90;83.20;;;;;;6245554;23;20430;-78
2023/04/01 01:08:47;;;;;;;22.75;6.07;;;15.90;83.60;;;;;;6245592;23;19999;-79
2023/04/01 01:11:15;;;;;;;21.75;6.18;;;15.90;83.90;;;;;;6245580;23;20015;-77
2023/04/01 01:13:50;;;;;;;20.55;5.60;;;15.90;83.50;;;;;;6245791;23;20000;-78
2023/04/01 01:16:20;;;;;;;29.20;6.00;;;15.90;83.70;;;;;;6213645;23;20059;-78
2023/04/01 01:18:53;;;;;;;24.85;6.18;;;15.90;83.60;;;;;;6215338;23;20381;-78
2023/04/01 01:21:40;;;;;;;21.70;5.72;;;15.90;84.10;;;;;;6215036;23;20075;-77
2023/04/01 01:24:29;;;;;;;24.70;6.43;;;15.90;84.20;;;;;;6215313;23;20008;-77
2023/04/01 01:27:16;;;;;;;22.17;7.03;;;15.90;84.10;;;;;;6215184;23;20028;-79
2023/04/01 01:29:59;;;;;;;22.95;6.20;;;15.90;84.10;;;;;;6215046;23;20015;-77
2023/04/01 01:32:55;;;;;;;28.77;6.88;;;15.90;84.10;;;;;;6215372;23;20001;-79
2023/04/01 01:35:45;;;;;;;26.98;7.05;;;16.00;84.70;;;;;;6215196;23;20011;-78
2023/04/01 01:38:15;;;;;;;30.73;6.65;;;16.00;85.40;;;;;;6215075;23;20012;-77
2023/04/01 01:40:44;;;;;;;25.25;6.18;;;16.00;85.20;;;;;;6213400;23;20024;-79
2023/04/01 01:43:14;;;;;;;33.22;6.75;;;16.00;84.70;;;;;;6215023;23;20009;-79
2023/04/01 01:45:52;;;;;;;23.55;6.20;;;16.00;84.80;;;;;;6215454;23;20004;-79
2023/04/01 01:48:19;;;;;;;22.50;6.15;;;16.00;85.50;;;;;;6215228;23;20032;-78
2023/04/01 01:50:47;;;;;;;31.80;7.18;;;16.00;85.40;;;;;;6214900;23;20032;-78
2023/04/01 01:53:14;;;;;;;24.63;5.85;;;16.00;85.50;;;;;;6213209;23;20011;-78
2023/04/01 01:55:47;;;;;;;32.13;7.75;;;16.00;85.60;;;;;;6214984;23;20008;-78
2023/04/01 01:58:24;;;;;;;29.00;8.13;;;16.00;85.80;;;;;;6214801;23;19996;-77
2023/04/01 02:01:04;;;;;;;31.55;7.25;;;16.00;85.90;;;;;;6214964;23;20330;-79
2023/04/01 02:03:35;;;;;;;23.73;7.10;;;16.00;86.50;;;;;;6215051;23;20005;-78
2023/04/01 02:06:05;;;;;;;23.30;6.57;;;16.00;86.10;;;;;;6214735;23;20380;-78
2023/04/01 02:08:41;;;;;;;30.10;6.97;;;16.00;86.30;;;;;;6212842;23;20391;-79
2023/04/01 02:11:10;;;;;;;28.35;7.18;;;16.00;86.40;;;;;;6213733;23;20039;-78
2023/04/01 02:14:13;;;;;;;32.20;7.05;;;16.00;86.50;;;;;;6213952;23;19996;-79
2023/04/01 02:16:48;;;;;;;28.27;7.88;;;16.00;87.50;;;;;;6153353;23;20021;-78
2023/04/01 02:19:22;;;;;;;26.98;7.63;;;16.00;86.70;;;;;;6215052;23;20000;-78
2023/04/01 02:21:51;;;;;;;27.98;7.82;;;16.00;86.90;;;;;;6215060;23;20335;-79
2023/04/01 02:24:21;;;;;;;30.23;7.75;;;16.00;87.00;;;;;;6214768;23;20442;-78
2023/04/01 02:26:47;;;;;;;32.80;8.25;;;16.00;87.30;;;;;;6215006;23;20335;-79
2023/04/01 02:29:13;;;;;;;28.88;7.43;;;15.90;87.60;;;;;;6215068;23;20063;-79
2023/04/01 02:31:41;;;;;;;26.98;7.75;;;15.90;87.50;;;;;;6213083;23;20029;-77
2023/04/01 02:34:07;;;;;;;30.30;8.18;;;15.90;87.90;;;;;;6215271;23;20007;-79
2023/04/01 02:36:35;;;;;;;30.95;8.65;;;15.90;88.20;;;;;;6225648;23;20000;-78
2023/04/01 02:39:04;;;;;;;26.35;7.47;;;15.80;88.20;;;;;;6232075;23;20024;-78
2023/04/01 02:41:30;;;;;;;26.88;7.93;;;15.80;88.50;;;;;;6233181;23;20001;-78
2023/04/01 02:43:58;;;;;;;27.60;8.43;;;15.80;88.70;;;;;;6216375;23;20346;-77
2023/04/01 02:46:24;;;;;;;29.35;7.50;;;15.80;88.80;;;;;;6214732;23;20088;-78
2023/04/01 02:48:50;;;;;;;28.35;7.95;;;15.80;88.90;;;;;;6212843;23;20120;-80
2023/04/01 02:51:15;;;;;;;39.15;8.68;;;15.80;89.00;;;;;;6215503;23;20032;-79
2023/04/01 02:53:41;;;;;;;32.80;9.13;;;15.80;89.20;;;;;;6214638;23;20340;-79
2023/04/01 02:56:07;;;;;;;27.77;8.48;;;15.80;89.50;;;;;;6214499;23;20004;-78
2023/04/01 02:58:33;;;;;;;29.80;8.35;;;15.80;89.70;;;;;;6214561;23;20000;-78
2023/04/01 03:00:58;;;;;;;33.05;8.20;;;15.70;89.90;;;;;;6214632;23;20012;-79
2023/04/01 03:03:24;;;;;;;30.00;7.55;;;15.70;90.00;;;;;;6214763;23;20028;-79
2023/04/01 03:05:50;;;;;;;28.40;8.48;;;15.70;90.10;;;;;;6215040;23;20006;-79
2023/04/01 03:08:15;;;;;;;30.85;8.23;;;15.70;90.20;;;;;;6214704;23;20000;-77
2023/04/01 03:10:41;;;;;;;35.08;9.13;;;15.70;90.50;;;;;;6215867;23;20066;-79
2023/04/01 03:13:07;;;;;;;31.15;7.95;;;15.70;90.70;;;;;;6216545;23;20008;-79
2023/04/01 03:15:33;;;;;;;26.30;8.07;;;15.60;90.40;;;;;;6220850;23;20067;-77
2023/04/01 03:17:58;;;;;;;35.15;9.15;;;15.60;90.50;;;;;;6246622;23;20076;-79
2023/04/01 03:20:24;;;;;;;26.55;8.80;;;15.50;90.50;;;;;;6246618;23;20389;-78
2023/04/01 03:22:50;;;;;;;28.02;9.18;;;15.50;90.60;;;;;;6246520;23;19996;-79
2023/04/01 03:25:15;;;;;;;37.17;9.25;;;15.50;90.70;;;;;;6247036;23;20015;-78
2023/04/01 03:27:41;;;;;;;32.47;7.80;;;15.50;90.80;;;;;;6246826;23;19997;-79
2023/04/01 03:30:07;;;;;;;29.08;8.85;;;15.50;90.90;;;;;;6246354;23;20399;-79
2023/04/01 03:32:33;;;;;;;27.15;8.38;;;15.50;90.90;;;;;;6219494;23;20008;-77
2023/04/01 03:34:59;;;;;;;29.63;7.80;;;15.50;90.90;;;;;;6246788;23;20015;-79
2023/04/01 03:37:25;;;;;;;31.58;8.82;;;15.40;90.90;;;;;;6246610;23;20378;-77
2023/04/01 03:39:51;;;;;;;25.55;8.10;;;15.40;91.00;;;;;;6246845;23;20038;-79
2023/04/01 03:42:16;;;;;;;29.38;8.52;;;15.40;91.00;;;;;;6246818;23;20423;-78
2023/04/01 03:44:42;;;;;;;32.17;9.02;;;15.30;91.10;;;;;;6246521;23;20018;-79
2023/04/01 03:47:09;;;;;;;35.53;8.57;;;15.30;91.20;;;;;;6246428;23;20007;-78
2023/04/01 03:49:35;;;;;;;27.45;9.13;;;15.20;91.30;;;;;;6246363;23;20001;-78
2023/04/01 03:52:01;;;;;;;30.73;8.93;;;15.20;91.60;;;;;;6246206;23;20015;-79
2023/04/01 03:54:26;;;;;;;25.48;8.95;;;15.10;91.60;;;;;;6246231;23;20323;-79
2023/04/01 03:56:52;;;;;;;30.33;8.82;;;15.10;91.70;;;;;;6219264;23;20338;-78
2023/04/01 03:59:18;;;;;;;35.80;10.00;;;15.10;91.70;;;;;;6246207;23;20094;-79
2023/04/01 04:01:45;;;;;;;30.48;9.27;;;15.00;91.80;;;;;;6245907;23;20004;-78
2023/04/01 04:04:12;;;;;;;38.67;10.40;;;15.00;91.90;;;;;;6246173;23;20103;-79
2023/04/01 04:06:38;;;;;;;36.08;9.27;;;15.00;92.10;;;;;;6246205;23;20007;-78
2023/04/01 04:09:04;;;;;;;32.15;9.30;;;14.90;92.00;;;;;;6246248;23;20000;-79
2023/04/01 04:11:32;;;;;;;33.28;9.50;;;15.00;92.20;;;;;;6246529;23;20016;-79
2023/04/01 04:13:58;;;;;;;36.38;8.98;;;15.00;92.10;;;;;;6245661;23;20000;-78
2023/04/01 04:16:24;;;;;;;32.30;10.52;;;14.90;92.10;;;;;;6245528;23;20016;-79
2023/04/01 04:18:50;;;;;;;31.52;9.18;;;14.90;92.20;;;;;;6245914;23;20072;-79
2023/04/01 04:21:16;;;;;;;29.52;9.15;;;14.90;92.20;;;;;;6245532;23;20079;-78
2023/04/01 04:23:43;;;;;;;29.00;8.65;;;14.90;92.60;;;;;;6218755;23;20005;-78
2023/04/01 04:26:12;;;;;;;29.70;9.13;;;14.90;92.40;;;;;;6245923;23;20462;-78
2023/04/01 04:28:38;;;;;;;35.30;9.95;;;14.90;92.40;;;;;;6245599;23;20118;-78
2023/04/01 04:31:05;;;;;;;31.65;9.45;;;14.90;92.30;;;;;;6246333;23;20008;-78
2023/04/01 04:33:31;;;;;;;34.95;9.40;;;14.90;92.40;;;;;;6245942;23;20011;-75
2023/04/01 04:35:58;;;;;;;31.52;9.05;;;14.90;92.50;;;;;;6246082;23;20411;-78
2023/04/01 04:38:25;;;;;;;31.85;9.98;;;14.80;92.50;;;;;;6246172;23;20004;-77
2023/04/01 04:40:50;;;;;;;32.50;10.13;;;14.80;92.40;;;;;;6246123;23;20004;-78
2023/04/01 04:43:17;;;;;;;29.48;9.40;;;14.80;92.40;;;;;;6265888;23;20007;-77
2023/04/01 04:45:44;;;;;;;35.22;9.32;;;14.80;92.40;;;;;;6268223;23;20011;-79
2023/04/01 04:48:18;;;;;;;31.15;9.20;;;14.80;92.40;;;;;;6235703;23;20438;-78
2023/04/01 04:50:44;;;;;;;;;;;14.80;92.50;;;;;;6246460;23;20018;-77
2023/04/01 04:53:11;;;;;;;32.80;8.85;;;14.80;92.30;;;;;;6245529;23;19906;-78
2023/04/01 04:55:36;;;;;;;31.55;9.45;;;14.80;92.60;;;;;;6245658;23;19997;-78
2023/04/01 04:58:02;;;;;;;38.55;8.85;;;14.80;92.40;;;;;;6245565;23;20054;-79
2023/04/01 05:00:28;;;;;;;36.53;11.00;;;14.80;92.40;;;;;;6246313;23;20000;-79
2023/04/01 05:02:54;;;;;;;29.13;9.40;;;14.80;92.50;;;;;;6245503;23;20000;-79
2023/04/01 05:05:20;;;;;;;33.15;10.07;;;14.80;92.50;;;;;;6245422;23;20008;-79
2023/04/01 05:07:45;;;;;;;32.88;9.90;;;14.80;92.50;;;;;;6218659;23;20012;-79
2023/04/01 05:10:11;;;;;;;33.90;9.73;;;14.80;92.50;;;;;;6245164;23;20007;-79
2023/04/01 05:12:38;;;;;;;36.67;9.60;;;14.80;92.50;;;;;;6218516;23;20402;-79
2023/04/01 05:15:07;;;;;;;34.97;8.95;;;14.80;92.50;;;;;;6245199;23;20075;-79
2023/04/01 05:17:33;;;;;;;35.38;9.70;;;14.70;92.50;;;;;;6245016;23;20100;-79
2023/04/01 05:19:59;;;;;;;37.85;8.85;;;14.70;92.60;;;;;;6245268;23;20040;-79
2023/04/01 05:22:25;;;;;;;40.33;10.25;;;14.70;92.50;;;;;;6245556;23;20015;-79
2023/04/01 05:24:51;;;;;;;38.03;9.98;;;14.80;92.60;;;;;;6245824;23;20062;-77
2023/04/01 05:27:17;;;;;;;40.20;9.55;;;14.80;92.50;;;;;;6245538;23;20008;-79
2023/04/01 05:29:43;;;;;;;37.55;9.40;;;14.80;92.50;;;;;;6218991;23;20008;-79
2023/04/01 05:32:08;;;;;;;36.90;8.80;;;14.80;92.40;;;;;;6244774;23;20039;-79
2023/04/01 05:34:34;;;;;;;30.17;8.95;;;14.80;92.40;;;;;;6245112;23;20470;-79
2023/04/01 05:37:00;;;;;;;34.75;9.40;;;14.80;92.30;;;;;;6245595;23;20012;-79
2023/04/01 05:39:26;;;;;;;36.25;9.05;;;14.90;92.30;;;;;;6245573;23;20000;-76
2023/04/01 05:41:52;;;;;;;32.00;9.55;;;14.90;92.30;;;;;;6218983;23;20004;-79
2023/04/01 05:44:17;;;;;;;34.00;9.82;;;14.90;92.20;;;;;;6245799;23;20001;-80
2023/04/01 05:46:43;;;;;;;33.67;9.73;;;15.00;92.20;;;;;;6245425;23;20004;-77
2023/04/01 05:49:09;;;;;;;39.20;10.00;;;15.00;92.20;;;;;;6245457;23;20502;-78
2023/04/01 05:51:34;;;;;;;35.05;9.55;;;15.00;92.00;;;;;;6245028;23;20012;-78
2023/04/01 05:54:00;;;;;;;38.10;10.18;;;15.10;92.00;;;;;;6244795;23;20004;-77
2023/04/01 05:56:26;;;;;;;35.50;10.15;;;15.10;91.90;;;;;;6244989;23;20000;-80
2023/04/01 05:58:53;;;;;;;47.35;10.38;;;15.30;91.90;;;;;;6217896;23;20008;-79
2023/04/01 06:01:19;;;;;;;28.45;8.02;;;15.30;91.70;;;;;;6245052;23;20000;-79
2023/04/01 06:03:45;;;;;;;34.90;9.73;;;15.50;91.40;;;;;;6245059;23;20006;-77
2023/04/01 06:06:25;;;;;;;33.65;9.82;;;15.70;91.20;;;;;;6218120;23;20004;-78
2023/04/01 06:08:52;;;;;;;30.60;8.55;;;15.80;91.00;;;;;;6245094;23;20023;-79
2023/04/01 06:11:49;;;;;;;29.00;9.23;;;16.00;90.70;;;;;;6244937;23;20015;-80
2023/04/01 06:14:56;;;;;;;30.70;8.85;;;16.10;90.30;;;;;;6218294;23;20089;-78
2023/04/01 06:17:22;;;;;;;37.80;9.13;;;16.30;90.00;;;;;;6148529;23;20316;-78
2023/04/01 06:19:51;;;;;;;26.13;8.38;;;16.40;89.10;;;;;;6214841;23;20032;-78
2023/04/01 06:22:51;;;;;;;38.83;9.25;;;16.50;88.70;;;;;;6214775;23;20330;-79
2023/04/01 06:25:39;;;;;;;35.80;9.73;;;16.70;88.80;;;;;;6214642;23;20334;-78
2023/04/01 06:28:32;;;;;;;36.38;11.15;;;16.90;88.40;;;;;;6214597;23;20103;-79
2023/04/01 06:31:35;;;;;;;34.83;12.10;;;17.00;87.80;;;;;;6214303;23;20012;-79
2023/04/01 06:34:25;;;;;;;31.67;9.57;;;17.10;87.40;;;;;;6214701;23;20000;-79
2023/04/01 06:37:11;;;;;;;22.42;8.55;;;17.20;87.00;;;;;;6215074;23;19997;-78
2023/04/01 06:40:06;;;;;;;23.85;7.57;;;17.40;86.70;;;;;;6214695;23;20001;-78
2023/04/01 06:42:43;;;;;;;26.55;7.88;;;17.60;85.90;;;;;;6215011;23;20011;-74
2023/04/01 06:45:26;;;;;;;27.23;7.57;;;17.80;84.90;;;;;;6216675;23;20027;-78
2023/04/01 06:48:00;;;;;;;27.55;9.30;;;18.00;84.30;;;;;;6223469;23;20008;-78
2023/04/01 06:50:41;;;;;;;23.98;7.35;;;18.10;83.40;;;;;;6226995;23;20009;-78
2023/04/01 06:53:32;;;;;;;23.05;6.85;;;18.20;82.70;;;;;;6221831;23;20009;-78
2023/04/01 06:56:07;;;;;;;29.75;9.55;;;18.30;82.10;;;;;;6217381;23;20076;-78
2023/04/01 06:58:41;;;;;;;33.00;10.60;;;18.40;81.20;;;;;;6216904;23;20068;-80
2023/04/01 07:01:14;;;;;;;26.98;7.95;;;18.50;80.40;;;;;;6216531;23;20004;-78
2023/04/01 07:04:00;;;;;;;27.50;7.30;;;18.50;79.80;;;;;;6216259;23;20331;-78
2023/04/01 07:06:42;;;;;;;24.55;7.18;;;18.70;79.60;;;;;;6216728;23;20331;-78
2023/04/01 07:09:34;;;;;;;27.95;8.15;;;18.80;78.60;;;;;;6216310;23;20078;-79
2023/04/01 07:12:12;;;;;;;25.40;7.43;;;18.80;77.90;;;;;;6216597;23;20059;-77
2023/04/01 07:14:41;;;;;;;26.02;6.75;;;18.90;77.30;;;;;;6216623;23;20001;-78
2023/04/01 07:17:36;;;;;;;27.75;7.95;;;18.90;75.70;;;;;;6240557;23;20121;-78
2023/04/01 07:20:29;;;;;;;29.63;6.82;;;18.90;74.40;;;;;;6245735;23;20399;-78
2023/04/01 07:22:59;;;;;;;19.90;5.03;;;18.80;74.60;;;;;;6247265;23;20004;-80
2023/04/01 07:25:36;;;;;;;20.63;5.15;;;18.70;72.70;;;;;;6246585;23;20026;-79
2023/04/01 07:28:21;;;;;;;22.73;5.03;;;18.50;71.80;;;;;;6246707;23;19996;-79
2023/04/01 07:30:50;;;;;;;18.05;4.68;;;18.40;70.90;;;;;;6246682;23;20034;-80
2023/04/01 07:33:35;;;;;;;12.43;3.42;;;18.50;70.40;;;;;;6246905;23;20034;-79
2023/04/01 07:36:38;;;;;;;20.88;4.45;;;18.60;68.70;;;;;;6246513;23;20000;-77
2023/04/01 07:39:30;;;;;;;16.95;4.63;;;18.60;67.50;;;;;;6121377;23;20012;-78
2023/04/01 07:42:09;;;;;;;19.20;4.20;;;18.60;66.10;;;;;;6219398;23;20035;-78
2023/04/01 07:45:09;;;;;;;16.00;4.50;;;18.60;66.00;;;;;;6219456;23;20341;-79
2023/04/01 07:48:05;;;;;;;18.73;4.05;;;18.70;65.60;;;;;;6213389;23;20005;-79
2023/04/01 07:50:49;;;;;;;22.55;8.30;;;18.80;64.60;;;;;;6176142;23;20020;-79
2023/04/01 07:53:43;;;;;;;20.40;6.30;;;18.90;64.80;;;;;;6246917;23;20007;-79
2023/04/01 07:56:10;;;;;;;;;;;19.00;64.20;;;;;;6246142;22;20393;-79
2023/04/01 07:58:55;;;;;;;19.20;4.72;;;19.00;61.50;;;;;;6246571;23;19899;-79
2023/04/01 08:01:53;;;;;;;17.52;4.70;;;19.10;63.90;;;;;;6246698;23;20001;-80
2023/04/01 08:04:38;;;;;;;17.95;4.55;;;19.00;63.10;;;;;;6245531;23;20012;-79
2023/04/01 08:07:14;;;;;;;18.13;4.65;;;19.00;62.80;;;;;;6246113;23;20442;-79
2023/04/01 08:09:52;;;;;;;16.15;4.28;;;19.00;62.30;;;;;;6246019;23;20000;-78
2023/04/01 08:12:36;;;;;;;17.30;5.18;;;19.00;62.30;;;;;;6246348;23;20114;-78
2023/04/01 08:15:08;;;;;;;12.07;3.40;;;19.00;61.00;;;;;;6246787;23;20058;-79
2023/04/01 08:17:48;;;;;;;20.52;4.35;;;19.00;61.00;;;;;;6246135;23;20466;-80
2023/04/01 08:20:27;;;;;;;17.58;5.20;;;18.90;59.90;;;;;;6246047;23;19996;-79
2023/04/01 08:23:12;;;;;;;18.23;4.30;;;18.90;60.00;;;;;;6246032;23;20422;-80
2023/04/01 08:25:44;;;;;;;16.17;4.13;;;19.00;59.70;;;;;;6246489;23;20126;-80
2023/04/01 08:28:17;;;;;;;17.10;3.80;;;18.90;58.60;;;;;;6246295;23;20010;-80
2023/04/01 08:30:53;;;;;;;20.77;4.32;;;19.00;58.20;;;;;;6219924;23;20500;-79
2023/04/01 08:33:22;;;;;;;18.23;3.83;;;18.90;58.50;;;;;;6246073;23;20004;-79
2023/04/01 08:35:56;;;;;;;15.93;3.83;;;18.90;58.60;;;;;;6245687;23;20004;-78
2023/04/01 08:38:37;;;;;;;10.63;2.90;;;18.90;58.00;;;;;;6245894;23;20008;-80
2023/04/01 08:41:12;;;;;;;16.00;4.57;;;18.90;56.60;;;;;;6245986;23;20020;-80
2023/04/01 08:43:44;;;;;;;16.42;4.70;;;18.70;57.40;;;;;;6246072;23;20001;-79
2023/04/01 08:46:56;;;;;;;13.93;3.85;;;18.70;57.30;;;;;;6245719;23;20000;-76
2023/04/01 08:49:45;;;;;;;17.40;4.60;;;18.90;57.30;;;;;;6245696;23;20000;-79
2023/04/01 08:52:46;;;;;;;19.20;4.35;;;18.90;57.50;;;;;;6249437;23;20438;-79
2023/04/01 08:55:52;;;;;;;18.85;3.58;;;19.10;57.80;;;;;;6227674;23;20004;-80
2023/04/01 08:58:56;;;;;;;19.58;4.18;;;19.20;57.40;;;;;;6250308;23;20432;-78
2023/04/01 09:01:36;;;;;;;18.73;5.03;;;19.30;57.60;;;;;;6112827;23;20010;-79
2023/04/01 09:04:36;;;;;;;13.48;3.72;;;19.50;57.60;;;;;;6245655;23;20053;-79
2023/04/01 09:07:20;;;;;;;16.10;4.03;;;19.50;56.90;;;;;;6244371;23;20015;-78
2023/04/01 09:10:12;;;;;;;15.70;3.33;;;19.40;56.90;;;;;;6245643;23;20004;-79
2023/04/01 09:12:45;;;;;;;18.15;3.72;;;19.30;56.90;;;;;;6245586;23;20022;-80
2023/04/01 09:15:23;;;;;;;15.68;3.85;;;19.30;57.20;;;;;;6245301;23;20019;-79
2023/04/01 09:18:08;;;;;;;18.65;4.32;;;19.30;57.00;;;;;;6245520;23;20054;-80
2023/04/01 09:20:56;;;;;;;17.63;3.42;;;19.40;56.50;;;;;;6245014;23;20457;-79
2023/04/01 09:23:21;;;;;;;25.35;4.68;;;19.40;56.70;;;;;;6244929;23;20011;-77
2023/04/01 09:25:58;;;;;;;17.25;4.30;;;19.50;56.90;;;;;;6245219;23;20034;-79
2023/04/01 09:28:30;;;;;;;17.45;4.20;;;19.60;57.30;;;;;;6245220;23;20000;-78
2023/04/01 09:30:58;;;;;;;17.67;4.32;;;19.60;57.30;;;;;;6244877;23;20012;-78
2023/04/01 09:33:36;;;;;;;19.63;4.05;;;19.60;57.50;;;;;;6245287;23;20071;-80
2023/04/01 09:36:47;;;;;;;22.92;4.18;;;19.50;57.10;;;;;;6245390;23;20020;-79
2023/04/01 09:39:31;;;;;;;18.73;4.50;;;19.60;57.50;;;;;;6128485;23;20437;-78
2023/04/01 09:42:00;;;;;;;13.85;3.83;;;19.50;57.20;;;;;;6245382;23;20091;-79
2023/04/01 09:44:42;;;;;;;15.80;3.33;;;19.50;57.10;;;;;;6245162;23;20015;-79
2023/04/01 09:47:51;;;;;;;19.80;4.00;;;19.50;56.40;;;;;;6245352;23;20008;-79
2023/04/01 09:50:17;;;;;;;17.13;4.07;;;19.50;56.90;;;;;;6127046;23;20039;-79
2023/04/01 09:52:45;;;;;;;17.42;4.20;;;19.50;56.60;;;;;;6244974;23;20427;-78
2023/04/01 09:55:46;;;;;;;19.83;4.13;;;19.50;57.00;;;;;;6218302;23;20012;-78
2023/04/01 09:58:36;;;;;;;21.23;4.07;;;19.60;56.80;;;;;;6218616;23;20004;-78
2023/04/01 10:01:27;;;;;;;21.02;4.28;;;19.60;56.70;;;;;;6244923;23;20438;-79
2023/04/01 10:04:37;;;;;;;17.08;3.38;;;19.60;55.60;;;;;;6244989;23;20003;-79
2023/04/01 10:07:24;;;;;;;16.63;3.95;;;19.80;55.50;;;;;;6244952;23;20000;-79
2023/04/01 10:09:59;;;;;;;17.00;3.65;;;19.80;55.60;;;;;;6244717;23;20085;-79
2023/04/01 10:12:42;;;;;;;19.33;3.65;;;19.70;54.90;;;;;;6244903;23;20007;-79
2023/04/01 10:15:25;;;;;;;21.00;5.60;;;19.70;55.20;;;;;;6245204;23;20000;-80
2023/04/01 10:18:21;;;;;;;21.23;4.22;;;19.80;56.30;;;;;;6246000;23;20023;-78
2023/04/01 10:21:25;;;;;;;18.27;4.18;;;20.00;55.70;;;;;;6219093;23;20338;-79
2023/04/01 10:24:18;;;;;;;23.33;4.65;;;19.90;55.20;;;;;;6245609;23;20004;-79
2023/04/01 10:26:58;;;;;;;23.08;4.00;;;19.90;55.50;;;;;;6244612;23;20426;-78
2023/04/01 10:29:42;;;;;;;18.45;3.58;;;19.90;56.70;;;;;;6244571;23;20007;-80
2023/04/01 10:32:20;;;;;;;;;;;19.90;55.80;;;;;;6245192;23;20023;-79
2023/04/01 10:35:04;;;;;;;22.58;4.20;;;20.00;54.60;;;;;;6245150;23;19899;-79
2023/04/01 10:37:48;;;;;;;20.45;4.57;;;20.00;55.70;;;;;;6244572;23;20008;-79
2023/04/01 10:40:19;;;;;;;16.85;4.22;;;20.10;56.80;;;;;;6244456;23;20004;-80
2023/04/01 10:43:07;;;;;;;18.70;3.75;;;20.20;56.10;;;;;;6244341;23;20023;-80
2023/04/01 10:45:45;;;;;;;15.02;3.60;;;20.20;54.70;;;;;;6244219;23;20142;-79
2023/04/01 10:48:35;;;;;;;16.38;4.63;;;20.20;54.60;;;;;;6244725;23;20000;-79
2023/04/01 10:51:23;;;;;;;15.75;3.80;;;20.30;54.80;;;;;;6244742;23;20015;-77
2023/04/01 10:54:08;;;;;;;16.63;3.40;;;20.30;54.20;;;;;;6217889;23;20012;-75
2023/04/01 10:56:39;;;;;;;16.88;4.20;;;20.20;54.50;;;;;;6245700;23;20032;-79
2023/04/01 10:59:43;;;;;;;17.25;3.75;;;20.30;54.20;;;;;;6257714;23;20088;-78
2023/04/01 11:02:53;;;;;;;15.50;4.35;;;20.30;53.80;;;;;;6104978;23;20013;-77
2023/04/01 11:05:38;;;;;;;17.40;3.80;;;20.30;53.60;;;;;;6203157;23;20011;-80
2023/04/01 11:08:28;;;;;;;18.10;4.40;;;20.20;54.00;;;;;;6218058;23;20322;-78
2023/04/01 11:11:21;;;;;;;18.30;4.95;;;20.30;54.00;;;;;;6244575;23;20083;-78
2023/04/01 11:14:07;;;;;;;14.98;4.00;;;20.40;54.20;;;;;;6244869;23;20003;-78
2023/04/01 11:16:59;;;;;;;14.25;3.35;;;20.60;54.10;;;;;;6244198;23;20016;-78
2023/04/01 11:19:38;;;;;;;21.75;4.97;;;20.90;54.40;;;;;;6237646;23;20387;-79
2023/04/01 11:22:16;;;;;;;18.83;4.20;;;21.00;53.50;;;;;;6244990;23;20004;-79
2023/04/01 11:25:02;;;;;;;15.50;4.10;;;21.10;54.40;;;;;;6244582;23;20083;-78
2023/04/01 11:28:06;;;;;;;15.40;3.80;;;21.20;53.20;;;;;;6244390;23;19997;-79
2023/04/01 11:31:05;;;;;;;19.80;4.28;;;21.30;52.60;;;;;;6245739;23;20015;-78
2023/04/01 11:33:56;;;;;;;15.63;4.22;;;21.30;52.90;;;;;;6246843;23;20058;-79
2023/04/01 11:36:40;;;;;;;18.42;4.45;;;21.20;52.60;;;;;;6246651;23;20001;-79
2023/04/01 11:39:37;;;;;;;15.50;4.22;;;21.20;53.60;;;;;;6246956;23;20015;-79
2023/04/01 11:42:34;;;;;;;18.13;3.85;;;21.30;52.60;;;;;;6246723;23;20027;-79
2023/04/01 11:45:33;;;;;;;15.02;3.83;;;21.30;52.60;;;;;;6246939;23;20039;-78
2023/04/01 11:48:13;;;;;;;16.75;3.65;;;21.40;51.90;;;;;;6247438;23;20012;-79
2023/04/01 11:51:10;;;;;;;14.98;3.40;;;21.60;52.80;;;;;;6246760;23;20019;-80
2023/04/01 11:53:49;;;;;;;14.68;3.90;;;21.70;51.20;;;;;;6246837;23;20035;-78
2023/04/01 11:56:39;;;;;;;20.15;4.03;;;21.80;51.10;;;;;;6220184;23;20341;-78
2023/04/01 11:59:40;;;;;;;13.20;3.83;;;21.90;50.90;;;;;;6247056;23;19996;-79
2023/04/01 12:02:16;;;;;;;18.40;3.88;;;21.90;50.90;;;;;;6167037;23;20019;-77
2023/04/01 12:05:00;;;;;;;12.90;3.15;;;21.80;52.00;;;;;;6246614;23;20426;-79
2023/04/01 12:07:49;;;;;;;13.60;3.65;;;21.80;51.80;;;;;;6246741;23;20000;-79
2023/04/01 12:10:26;;;;;;;17.83;3.85;;;21.80;50.10;;;;;;6246361;23;20004;-80
2023/04/01 12:13:05;;;;;;;18.80;4.10;;;21.70;51.90;;;;;;6246528;23;20005;-79
2023/04/01 12:16:04;;;;;;;16.38;4.43;;;21.60;50.40;;;;;;6246369;23;20295;-80
2023/04/01 12:19:03;;;;;;;19.95;4.30;;;21.40;50.50;;;;;;6246409;23;20012;-80
2023/04/01 12:21:31;;;;;;;19.50;4.88;;;21.10;51.40;;;;;;6246315;23;20099;-78
2023/04/01 12:24:06;;;;;;;20.33;4.22;;;21.00;53.30;;;;;;6246347;23;20051;-78
2023/04/01 12:26:50;;;;;;;18.67;3.85;;;21.10;52.00;;;;;;6246992;23;20000;-80
2023/04/01 12:29:34;;;;;;;;;;;21.10;52.30;;;;;;6247320;23;20000;-79
2023/04/01 12:32:02;;;;;;;21.88;4.22;;;21.10;52.00;;;;;;6245937;23;19911;-78
2023/04/01 12:34:52;;;;;;;22.73;4.28;;;21.00;52.10;;;;;;6246408;23;20027;-79
2023/04/01 12:37:28;;;;;;;16.25;4.00;;;21.00;51.60;;;;;;6219223;23;20008;-79
2023/04/01 12:40:18;;;;;;;13.05;3.42;;;20.90;50.90;;;;;;6246185;23;20316;-78
2023/04/01 12:42:57;;;;;;;15.18;3.63;;;21.00;51.20;;;;;;6246406;23;20007;-79
2023/04/01 12:45:32;;;;;;;15.13;3.25;;;21.10;51.00;;;;;;6247001;23;20004;-79
2023/04/01 12:48:29;;;;;;;13.75;2.90;;;21.10;50.30;;;;;;6246266;23;20430;-78
2023/04/01 12:50:55;;;;;;;15.45;3.58;;;21.10;49.30;;;;;;6245843;23;20109;-79
2023/04/01 12:53:39;;;;;;;16.88;3.40;;;21.10;49.90;;;;;;6246172;23;20028;-79
2023/04/01 12:56:14;;;;;;;12.65;2.88;;;21.10;49.60;;;;;;6246095;23;20418;-80
2023/04/01 12:58:59;;;;;;;13.55;3.53;;;21.20;50.00;;;;;;6246624;23;20000;-78
2023/04/01 13:01:37;;;;;;;15.38;3.28;;;21.20;48.10;;;;;;6246063;23;20004;-78
2023/04/01 13:04:36;;;;;;;16.77;4.03;;;21.10;49.90;;;;;;6232996;23;20008;-79
2023/04/01 13:07:17;;;;;;;19.38;3.95;;;21.20;48.90;;;;;;6264268;23;20022;-79
2023/04/01 13:09:55;;;;;;;12.95;3.53;;;21.20;50.40;;;;;;6253913;23;20085;-77
2023/04/01 13:12:30;;;;;;;19.30;3.72;;;21.30;49.50;;;;;;6246191;23;20084;-79
2023/04/01 13:15:27;;;;;;;13.60;3.38;;;21.30;49.10;;;;;;6245786;23;20034;-79
2023/04/01 13:18:14;;;;;;;19.13;4.28;;;21.20;49.40;;;;;;6245939;23;20071;-78
2023/04/01 13:21:23;;;;;;;14.65;3.55;;;21.20;49.80;;;;;;6245601;23;20007;-77
2023/04/01 13:23:55;;;;;;;15.07;4.32;;;21.20;49.50;;;;;;6218675;23;20016;-79
2023/04/01 13:26:52;;;;;;;13.18;3.45;;;21.10;51.20;;;;;;6245151;23;20006;-78
2023/04/01 13:29:45;;;;;;;14.30;3.42;;;21.10;49.80;;;;;;6245597;23;20058;-78